sensor_id;sensor_type;location;lat;lon;timestamp;P1;durP1;ratioP1;P2;durP2;ratioP2
40907;SDS011;51055;59.436;24.778;2024-01-11T00:00:13;3.28;;;1.08;;
40907;SDS011;51055;59.436;24.778;2024-01-11T00:03:39;4.20;;;1.00;;
40907;SDS011;51055;59.436;24.778;2024-01-11T00:07:07;5.15;;;1.50;;
40907;SDS011;51055;59.436;24.778;2024-01-11T00:10:33;5.68;;;1.35;;
40907;SDS011;51055;59.436;24.778;2024-01-11T00:13:59;5.15;;;1.55;;
40907;SDS011;51055;59.436;24.778;2024-01-11T00:17:26;4.68;;;1.42;;
40907;SDS011;51055;59.436;24.778;2024-01-11T00:20:52;10.25;;;2.20;;
40907;SDS011;51055;59.436;24.778;2024-01-11T00:24:18;5.32;;;1.95;;
40907;SDS011;51055;59.436;24.778;2024-01-11T00:27:45;3.85;;;1.30;;
40907;SDS011;51055;59.436;24.778;2024-01-11T00:31:11;5.93;;;1.50;;
40907;SDS011;51055;59.436;24.778;2024-01-11T00:34:37;4.35;;;1.33;;
40907;SDS011;51055;59.436;24.778;2024-01-11T00:38:03;3.08;;;1.20;;
40907;SDS011;51055;59.436;24.778;2024-01-11T00:41:29;5.18;;;1.50;;
40907;SDS011;51055;59.436;24.778;2024-01-11T00:44:55;2.83;;;0.98;;
40907;SDS011;51055;59.436;24.778;2024-01-11T00:48:22;3.30;;;0.80;;
40907;SDS011;51055;59.436;24.778;2024-01-11T00:51:48;4.25;;;1.23;;
40907;SDS011;51055;59.436;24.778;2024-01-11T00:55:14;3.45;;;0.80;;
40907;SDS011;51055;59.436;24.778;2024-01-11T00:58:44;5.80;;;1.13;;
40907;SDS011;51055;59.436;24.778;2024-01-11T01:02:11;3.13;;;1.15;;
40907;SDS011;51055;59.436;24.778;2024-01-11T01:05:37;2.55;;;0.68;;
40907;SDS011;51055;59.436;24.778;2024-01-11T01:09:04;2.33;;;0.65;;
40907;SDS011;51055;59.436;24.778;2024-01-11T01:12:30;4.40;;;0.90;;
40907;SDS011;51055;59.436;24.778;2024-01-11T01:15:56;2.45;;;0.90;;
40907;SDS011;51055;59.436;24.778;2024-01-11T01:19:23;2.60;;;0.80;;
40907;SDS011;51055;59.436;24.778;2024-01-11T01:22:49;4.40;;;0.80;;
40907;SDS011;51055;59.436;24.778;2024-01-11T01:26:15;2.15;;;0.80;;
40907;SDS011;51055;59.436;24.778;2024-01-11T01:29:41;2.83;;;0.93;;
40907;SDS011;51055;59.436;24.778;2024-01-11T01:33:07;2.63;;;0.80;;
40907;SDS011;51055;59.436;24.778;2024-01-11T01:36:34;2.13;;;0.80;;
40907;SDS011;51055;59.436;24.778;2024-01-11T01:40:01;3.33;;;0.75;;
40907;SDS011;51055;59.436;24.778;2024-01-11T01:43:27;4.57;;;0.82;;
40907;SDS011;51055;59.436;24.778;2024-01-11T01:46:53;2.22;;;0.60;;
40907;SDS011;51055;59.436;24.778;2024-01-11T01:50:19;5.15;;;0.90;;
40907;SDS011;51055;59.436;24.778;2024-01-11T01:53:45;1.65;;;0.93;;
40907;SDS011;51055;59.436;24.778;2024-01-11T01:57:13;3.55;;;0.77;;
40907;SDS011;51055;59.436;24.778;2024-01-11T02:00:39;4.18;;;0.82;;
40907;SDS011;51055;59.436;24.778;2024-01-11T02:04:06;1.48;;;0.70;;
40907;SDS011;51055;59.436;24.778;2024-01-11T02:07:33;3.35;;;0.60;;
40907;SDS011;51055;59.436;24.778;2024-01-11T02:11:01;3.22;;;0.60;;
40907;SDS011;51055;59.436;24.778;2024-01-11T02:14:27;2.80;;;0.80;;
40907;SDS011;51055;59.436;24.778;2024-01-11T02:17:54;2.28;;;0.68;;
40907;SDS011;51055;59.436;24.778;2024-01-11T02:21:20;3.45;;;0.80;;
40907;SDS011;51055;59.436;24.778;2024-01-11T02:24:55;2.35;;;0.65;;
40907;SDS011;51055;59.436;24.778;2024-01-11T02:28:21;1.77;;;0.70;;
40907;SDS011;51055;59.436;24.778;2024-01-11T02:31:48;3.08;;;0.73;;
40907;SDS011;51055;59.436;24.778;2024-01-11T02:35:15;2.08;;;0.50;;
40907;SDS011;51055;59.436;24.778;2024-01-11T02:38:42;2.67;;;0.90;;
40907;SDS011;51055;59.436;24.778;2024-01-11T02:42:08;1.73;;;0.70;;
40907;SDS011;51055;59.436;24.778;2024-01-11T02:45:36;3.85;;;0.90;;
40907;SDS011;51055;59.436;24.778;2024-01-11T02:49:02;4.40;;;0.80;;
40907;SDS011;51055;59.436;24.778;2024-01-11T02:52:28;3.10;;;0.60;;
40907;SDS011;51055;59.436;24.778;2024-01-11T02:55:54;1.75;;;0.73;;
40907;SDS011;51055;59.436;24.778;2024-01-11T02:59:20;2.92;;;0.73;;
40907;SDS011;51055;59.436;24.778;2024-01-11T03:02:47;1.77;;;0.60;;
40907;SDS011;51055;59.436;24.778;2024-01-11T03:06:15;2.10;;;0.50;;
40907;SDS011;51055;59.436;24.778;2024-01-11T03:09:41;1.90;;;0.63;;
40907;SDS011;51055;59.436;24.778;2024-01-11T03:13:07;2.45;;;0.73;;
40907;SDS011;51055;59.436;24.778;2024-01-11T03:16:34;3.90;;;0.85;;
40907;SDS011;51055;59.436;24.778;2024-01-11T03:20:02;1.10;;;0.60;;
40907;SDS011;51055;59.436;24.778;2024-01-11T03:23:28;1.20;;;0.50;;
40907;SDS011;51055;59.436;24.778;2024-01-11T03:26:54;1.98;;;0.60;;
40907;SDS011;51055;59.436;24.778;2024-01-11T03:30:20;1.98;;;0.60;;
40907;SDS011;51055;59.436;24.778;2024-01-11T03:33:46;1.20;;;0.50;;
40907;SDS011;51055;59.436;24.778;2024-01-11T03:37:12;0.43;;;0.40;;
40907;SDS011;51055;59.436;24.778;2024-01-11T03:40:33;1.35;;;0.52;;
40907;SDS011;51055;59.436;24.778;2024-01-11T03:43:59;0.65;;;0.47;;
40907;SDS011;51055;59.436;24.778;2024-01-11T03:47:25;2.50;;;1.00;;
40907;SDS011;51055;59.436;24.778;2024-01-11T03:50:51;1.75;;;0.80;;
40907;SDS011;51055;59.436;24.778;2024-01-11T03:54:18;1.30;;;0.50;;
40907;SDS011;51055;59.436;24.778;2024-01-11T03:57:44;2.50;;;0.65;;
40907;SDS011;51055;59.436;24.778;2024-01-11T04:01:12;0.40;;;0.40;;
40907;SDS011;51055;59.436;24.778;2024-01-11T04:04:38;0.50;;;0.50;;
40907;SDS011;51055;59.436;24.778;2024-01-11T04:08:05;1.48;;;0.55;;
40907;SDS011;51055;59.436;24.778;2024-01-11T04:11:31;1.65;;;0.60;;
40907;SDS011;51055;59.436;24.778;2024-01-11T04:14:58;1.10;;;0.50;;
40907;SDS011;51055;59.436;24.778;2024-01-11T04:18:24;2.28;;;0.50;;
40907;SDS011;51055;59.436;24.778;2024-01-11T04:21:50;2.15;;;0.63;;
40907;SDS011;51055;59.436;24.778;2024-01-11T04:25:17;1.77;;;0.50;;
40907;SDS011;51055;59.436;24.778;2024-01-11T04:28:47;0.95;;;0.50;;
40907;SDS011;51055;59.436;24.778;2024-01-11T04:32:14;0.50;;;0.40;;
40907;SDS011;51055;59.436;24.778;2024-01-11T04:35:40;1.13;;;0.55;;
40907;SDS011;51055;59.436;24.778;2024-01-11T04:39:07;0.93;;;0.47;;
40907;SDS011;51055;59.436;24.778;2024-01-11T04:42:34;1.03;;;0.57;;
40907;SDS011;51055;59.436;24.778;2024-01-11T04:46:01;1.70;;;0.40;;
40907;SDS011;51055;59.436;24.778;2024-01-11T04:49:27;2.13;;;0.43;;
40907;SDS011;51055;59.436;24.778;2024-01-11T04:52:53;0.65;;;0.55;;
40907;SDS011;51055;59.436;24.778;2024-01-11T04:56:19;0.68;;;0.50;;
40907;SDS011;51055;59.436;24.778;2024-01-11T04:59:45;1.65;;;0.60;;
40907;SDS011;51055;59.436;24.778;2024-01-11T05:03:11;1.42;;;0.60;;
40907;SDS011;51055;59.436;24.778;2024-01-11T05:06:37;0.65;;;0.43;;
40907;SDS011;51055;59.436;24.778;2024-01-11T05:10:04;0.68;;;0.50;;
40907;SDS011;51055;59.436;24.778;2024-01-11T05:13:30;0.88;;;0.50;;
40907;SDS011;51055;59.436;24.778;2024-01-11T05:16:57;1.45;;;0.75;;
40907;SDS011;51055;59.436;24.778;2024-01-11T05:20:26;0.85;;;0.40;;
40907;SDS011;51055;59.436;24.778;2024-01-11T05:23:53;0.52;;;0.52;;
40907;SDS011;51055;59.436;24.778;2024-01-11T05:27:20;0.50;;;0.50;;
40907;SDS011;51055;59.436;24.778;2024-01-11T05:30:46;1.73;;;0.85;;
40907;SDS011;51055;59.436;24.778;2024-01-11T05:34:13;1.30;;;0.90;;
40907;SDS011;51055;59.436;24.778;2024-01-11T05:37:40;2.85;;;0.70;;
40907;SDS011;51055;59.436;24.778;2024-01-11T05:41:06;2.95;;;0.60;;
40907;SDS011;51055;59.436;24.778;2024-01-11T05:43:37;1.52;;;0.70;;
40907;SDS011;51055;59.436;24.778;2024-01-11T05:46:52;1.10;;;0.50;;
40907;SDS011;51055;59.436;24.778;2024-01-11T05:50:18;2.40;;;0.50;;
40907;SDS011;51055;59.436;24.778;2024-01-11T05:53:44;1.27;;;0.50;;
40907;SDS011;51055;59.436;24.778;2024-01-11T05:57:10;1.25;;;0.60;;
40907;SDS011;51055;59.436;24.778;2024-01-11T05:59:51;1.85;;;0.70;;
40907;SDS011;51055;59.436;24.778;2024-01-11T06:02:19;2.65;;;0.85;;
40907;SDS011;51055;59.436;24.778;2024-01-11T06:05:45;1.33;;;0.75;;
40907;SDS011;51055;59.436;24.778;2024-01-11T06:09:11;1.85;;;0.50;;
40907;SDS011;51055;59.436;24.778;2024-01-11T06:12:38;2.63;;;1.15;;
40907;SDS011;51055;59.436;24.778;2024-01-11T06:16:04;1.95;;;0.65;;
40907;SDS011;51055;59.436;24.778;2024-01-11T06:18:32;1.33;;;0.70;;
40907;SDS011;51055;59.436;24.778;2024-01-11T06:21:58;1.73;;;0.68;;
40907;SDS011;51055;59.436;24.778;2024-01-11T06:24:26;1.70;;;0.70;;
40907;SDS011;51055;59.436;24.778;2024-01-11T06:27:32;2.42;;;1.00;;
40907;SDS011;51055;59.436;24.778;2024-01-11T06:30:09;2.53;;;0.70;;
40907;SDS011;51055;59.436;24.778;2024-01-11T06:32:39;1.77;;;0.82;;
40907;SDS011;51055;59.436;24.778;2024-01-11T06:35:07;0.77;;;0.47;;
40907;SDS011;51055;59.436;24.778;2024-01-11T06:37:39;1.80;;;0.70;;
40907;SDS011;51055;59.436;24.778;2024-01-11T06:40:38;1.85;;;0.80;;
40907;SDS011;51055;59.436;24.778;2024-01-11T06:43:29;2.05;;;0.63;;
40907;SDS011;51055;59.436;24.778;2024-01-11T06:46:03;0.65;;;0.43;;
40907;SDS011;51055;59.436;24.778;2024-01-11T06:49:03;0.45;;;0.40;;
40907;SDS011;51055;59.436;24.778;2024-01-11T06:51:50;0.90;;;0.57;;
40907;SDS011;51055;59.436;24.778;2024-01-11T06:54:21;0.40;;;0.40;;
40907;SDS011;51055;59.436;24.778;2024-01-11T06:56:49;1.95;;;0.60;;
40907;SDS011;51055;59.436;24.778;2024-01-11T06:59:17;2.78;;;0.77;;
40907;SDS011;51055;59.436;24.778;2024-01-11T07:04:14;0.88;;;0.52;;
40907;SDS011;51055;59.436;24.778;2024-01-11T07:06:42;1.50;;;0.55;;
40907;SDS011;51055;59.436;24.778;2024-01-11T07:09:10;1.70;;;0.52;;
40907;SDS011;51055;59.436;24.778;2024-01-11T07:11:38;0.50;;;0.50;;
40907;SDS011;51055;59.436;24.778;2024-01-11T07:14:06;0.80;;;0.40;;
40907;SDS011;51055;59.436;24.778;2024-01-11T07:16:34;1.77;;;0.65;;
40907;SDS011;51055;59.436;24.778;2024-01-11T07:19:02;2.58;;;0.63;;
40907;SDS011;51055;59.436;24.778;2024-01-11T07:21:31;2.85;;;0.70;;
40907;SDS011;51055;59.436;24.778;2024-01-11T07:23:59;1.52;;;0.82;;
40907;SDS011;51055;59.436;24.778;2024-01-11T07:26:26;1.83;;;0.70;;
40907;SDS011;51055;59.436;24.778;2024-01-11T07:28:54;1.73;;;0.75;;
40907;SDS011;51055;59.436;24.778;2024-01-11T07:31:22;2.58;;;0.65;;
40907;SDS011;51055;59.436;24.778;2024-01-11T07:33:50;1.50;;;0.82;;
40907;SDS011;51055;59.436;24.778;2024-01-11T07:36:18;0.60;;;0.60;;
40907;SDS011;51055;59.436;24.778;2024-01-11T07:38:46;1.33;;;0.60;;
40907;SDS011;51055;59.436;24.778;2024-01-11T07:41:15;0.75;;;0.60;;
40907;SDS011;51055;59.436;24.778;2024-01-11T07:43:42;0.80;;;0.60;;
40907;SDS011;51055;59.436;24.778;2024-01-11T07:46:21;1.48;;;0.55;;
40907;SDS011;51055;59.436;24.778;2024-01-11T07:49:05;0.77;;;0.55;;
40907;SDS011;51055;59.436;24.778;2024-01-11T07:51:33;1.35;;;0.50;;
40907;SDS011;51055;59.436;24.778;2024-01-11T07:54:04;2.00;;;0.63;;
40907;SDS011;51055;59.436;24.778;2024-01-11T07:56:32;1.15;;;0.57;;
40907;SDS011;51055;59.436;24.778;2024-01-11T07:59:00;1.15;;;0.57;;
40907;SDS011;51055;59.436;24.778;2024-01-11T08:01:28;3.50;;;0.65;;
40907;SDS011;51055;59.436;24.778;2024-01-11T08:03:55;2.33;;;0.90;;
40907;SDS011;51055;59.436;24.778;2024-01-11T08:06:23;2.28;;;0.70;;
40907;SDS011;51055;59.436;24.778;2024-01-11T08:08:51;0.75;;;0.60;;
40907;SDS011;51055;59.436;24.778;2024-01-11T08:11:20;2.15;;;0.82;;
40907;SDS011;51055;59.436;24.778;2024-01-11T08:13:47;5.97;;;1.00;;
40907;SDS011;51055;59.436;24.778;2024-01-11T08:16:16;1.08;;;0.60;;
40907;SDS011;51055;59.436;24.778;2024-01-11T08:18:45;3.10;;;1.00;;
40907;SDS011;51055;59.436;24.778;2024-01-11T08:21:13;6.22;;;1.15;;
40907;SDS011;51055;59.436;24.778;2024-01-11T08:23:41;3.50;;;1.00;;
40907;SDS011;51055;59.436;24.778;2024-01-11T08:26:15;2.28;;;0.80;;
40907;SDS011;51055;59.436;24.778;2024-01-11T08:28:44;2.28;;;1.10;;
40907;SDS011;51055;59.436;24.778;2024-01-11T08:31:12;2.15;;;0.90;;
40907;SDS011;51055;59.436;24.778;2024-01-11T08:33:39;3.17;;;1.00;;
40907;SDS011;51055;59.436;24.778;2024-01-11T08:36:07;3.15;;;0.65;;
40907;SDS011;51055;59.436;24.778;2024-01-11T08:38:35;1.40;;;0.70;;
40907;SDS011;51055;59.436;24.778;2024-01-11T08:41:03;1.67;;;0.60;;
40907;SDS011;51055;59.436;24.778;2024-01-11T08:43:31;1.02;;;0.70;;
40907;SDS011;51055;59.436;24.778;2024-01-11T08:45:59;2.20;;;0.60;;
40907;SDS011;51055;59.436;24.778;2024-01-11T08:48:26;2.47;;;0.70;;
40907;SDS011;51055;59.436;24.778;2024-01-11T08:50:55;2.13;;;0.70;;
40907;SDS011;51055;59.436;24.778;2024-01-11T08:53:23;1.13;;;0.65;;
40907;SDS011;51055;59.436;24.778;2024-01-11T08:55:51;2.40;;;0.70;;
40907;SDS011;51055;59.436;24.778;2024-01-11T08:58:20;2.78;;;0.80;;
40907;SDS011;51055;59.436;24.778;2024-01-11T09:00:48;6.85;;;1.23;;
40907;SDS011;51055;59.436;24.778;2024-01-11T09:03:16;6.25;;;1.30;;
40907;SDS011;51055;59.436;24.778;2024-01-11T09:05:44;1.67;;;0.65;;
40907;SDS011;51055;59.436;24.778;2024-01-11T09:08:12;2.92;;;1.00;;
40907;SDS011;51055;59.436;24.778;2024-01-11T09:10:40;2.92;;;1.00;;
40907;SDS011;51055;59.436;24.778;2024-01-11T09:13:09;1.85;;;0.90;;
40907;SDS011;51055;59.436;24.778;2024-01-11T09:15:41;2.08;;;0.90;;
40907;SDS011;51055;59.436;24.778;2024-01-11T09:18:09;1.50;;;0.80;;
40907;SDS011;51055;59.436;24.778;2024-01-11T09:20:37;2.17;;;1.00;;
40907;SDS011;51055;59.436;24.778;2024-01-11T09:23:05;1.23;;;0.87;;
40907;SDS011;51055;59.436;24.778;2024-01-11T09:25:33;1.88;;;0.80;;
40907;SDS011;51055;59.436;24.778;2024-01-11T09:28:00;3.38;;;0.93;;
40907;SDS011;51055;59.436;24.778;2024-01-11T09:30:28;4.38;;;1.00;;
40907;SDS011;51055;59.436;24.778;2024-01-11T09:32:56;3.63;;;1.25;;
40907;SDS011;51055;59.436;24.778;2024-01-11T09:35:24;4.97;;;1.00;;
40907;SDS011;51055;59.436;24.778;2024-01-11T09:37:52;1.58;;;0.90;;
40907;SDS011;51055;59.436;24.778;2024-01-11T09:40:20;2.95;;;0.98;;
40907;SDS011;51055;59.436;24.778;2024-01-11T09:42:47;1.33;;;0.80;;
40907;SDS011;51055;59.436;24.778;2024-01-11T09:45:16;1.15;;;0.60;;
40907;SDS011;51055;59.436;24.778;2024-01-11T09:47:44;3.13;;;1.00;;
40907;SDS011;51055;59.436;24.778;2024-01-11T09:50:15;2.42;;;0.80;;
40907;SDS011;51055;59.436;24.778;2024-01-11T09:52:48;2.90;;;0.73;;
40907;SDS011;51055;59.436;24.778;2024-01-11T09:55:17;1.33;;;0.77;;
40907;SDS011;51055;59.436;24.778;2024-01-11T09:57:46;2.30;;;0.85;;
40907;SDS011;51055;59.436;24.778;2024-01-11T10:00:18;2.55;;;0.88;;
40907;SDS011;51055;59.436;24.778;2024-01-11T10:02:49;1.02;;;0.60;;
40907;SDS011;51055;59.436;24.778;2024-01-11T10:05:17;2.35;;;0.70;;
40907;SDS011;51055;59.436;24.778;2024-01-11T10:07:46;1.77;;;0.90;;
40907;SDS011;51055;59.436;24.778;2024-01-11T10:10:14;2.55;;;0.80;;
40907;SDS011;51055;59.436;24.778;2024-01-11T10:12:43;4.13;;;0.80;;
40907;SDS011;51055;59.436;24.778;2024-01-11T10:15:10;1.63;;;0.80;;
40907;SDS011;51055;59.436;24.778;2024-01-11T10:17:43;3.40;;;0.85;;
40907;SDS011;51055;59.436;24.778;2024-01-11T10:20:12;1.65;;;0.93;;
40907;SDS011;51055;59.436;24.778;2024-01-11T10:22:45;2.28;;;0.77;;
40907;SDS011;51055;59.436;24.778;2024-01-11T10:25:14;3.28;;;0.80;;
40907;SDS011;51055;59.436;24.778;2024-01-11T10:30:12;2.55;;;0.90;;
40907;SDS011;51055;59.436;24.778;2024-01-11T10:32:44;1.63;;;0.82;;
40907;SDS011;51055;59.436;24.778;2024-01-11T10:35:13;1.77;;;0.77;;
40907;SDS011;51055;59.436;24.778;2024-01-11T10:37:41;2.97;;;1.10;;
40907;SDS011;51055;59.436;24.778;2024-01-11T10:40:10;3.22;;;1.13;;
40907;SDS011;51055;59.436;24.778;2024-01-11T10:42:42;2.97;;;1.00;;
40907;SDS011;51055;59.436;24.778;2024-01-11T10:45:15;3.00;;;1.02;;
40907;SDS011;51055;59.436;24.778;2024-01-11T10:47:55;3.55;;;1.20;;
40907;SDS011;51055;59.436;24.778;2024-01-11T10:50:34;1.45;;;0.90;;
40907;SDS011;51055;59.436;24.778;2024-01-11T10:53:04;2.55;;;1.08;;
40907;SDS011;51055;59.436;24.778;2024-01-11T10:55:36;4.50;;;1.75;;
40907;SDS011;51055;59.436;24.778;2024-01-11T10:58:05;16.02;;;1.63;;
40907;SDS011;51055;59.436;24.778;2024-01-11T11:00:35;1.63;;;0.90;;
40907;SDS011;51055;59.436;24.778;2024-01-11T11:03:05;2.97;;;1.00;;
40907;SDS011;51055;59.436;24.778;2024-01-11T11:05:34;3.08;;;1.15;;
40907;SDS011;51055;59.436;24.778;2024-01-11T11:08:03;2.58;;;0.80;;
40907;SDS011;51055;59.436;24.778;2024-01-11T11:10:36;4.30;;;1.05;;
40907;SDS011;51055;59.436;24.778;2024-01-11T11:13:06;4.47;;;1.15;;
40907;SDS011;51055;59.436;24.778;2024-01-11T11:15:36;3.35;;;0.85;;
40907;SDS011;51055;59.436;24.778;2024-01-11T11:18:05;2.80;;;0.88;;
40907;SDS011;51055;59.436;24.778;2024-01-11T11:20:35;2.70;;;0.80;;
40907;SDS011;51055;59.436;24.778;2024-01-11T11:23:03;1.52;;;0.85;;
40907;SDS011;51055;59.436;24.778;2024-01-11T11:25:32;4.22;;;1.05;;
40907;SDS011;51055;59.436;24.778;2024-01-11T11:28:03;2.58;;;0.85;;
40907;SDS011;51055;59.436;24.778;2024-01-11T11:31:37;4.63;;;1.10;;
40907;SDS011;51055;59.436;24.778;2024-01-11T11:34:12;1.73;;;0.80;;
40907;SDS011;51055;59.436;24.778;2024-01-11T11:36:40;2.92;;;0.90;;
40907;SDS011;51055;59.436;24.778;2024-01-11T11:39:10;3.75;;;0.80;;
40907;SDS011;51055;59.436;24.778;2024-01-11T11:41:41;4.13;;;1.15;;
40907;SDS011;51055;59.436;24.778;2024-01-11T11:44:11;3.28;;;1.23;;
40907;SDS011;51055;59.436;24.778;2024-01-11T11:46:41;3.35;;;1.13;;
40907;SDS011;51055;59.436;24.778;2024-01-11T11:49:09;4.03;;;1.20;;
40907;SDS011;51055;59.436;24.778;2024-01-11T11:51:38;3.25;;;1.25;;
40907;SDS011;51055;59.436;24.778;2024-01-11T11:54:08;4.60;;;1.10;;
40907;SDS011;51055;59.436;24.778;2024-01-11T11:56:42;2.53;;;0.80;;
40907;SDS011;51055;59.436;24.778;2024-01-11T11:59:10;3.10;;;1.10;;
40907;SDS011;51055;59.436;24.778;2024-01-11T12:01:38;2.75;;;1.00;;
40907;SDS011;51055;59.436;24.778;2024-01-11T12:04:07;2.70;;;0.90;;
40907;SDS011;51055;59.436;24.778;2024-01-11T12:06:35;3.67;;;0.85;;
40907;SDS011;51055;59.436;24.778;2024-01-11T12:09:03;4.22;;;1.10;;
40907;SDS011;51055;59.436;24.778;2024-01-11T12:11:31;1.88;;;0.80;;
40907;SDS011;51055;59.436;24.778;2024-01-11T12:14:00;3.70;;;0.82;;
40907;SDS011;51055;59.436;24.778;2024-01-11T12:16:28;3.42;;;1.00;;
40907;SDS011;51055;59.436;24.778;2024-01-11T12:18:55;6.05;;;0.82;;
40907;SDS011;51055;59.436;24.778;2024-01-11T12:21:24;3.25;;;0.73;;
40907;SDS011;51055;59.436;24.778;2024-01-11T12:23:53;5.25;;;0.85;;
40907;SDS011;51055;59.436;24.778;2024-01-11T12:26:22;2.50;;;0.90;;
40907;SDS011;51055;59.436;24.778;2024-01-11T12:28:51;5.15;;;1.02;;
40907;SDS011;51055;59.436;24.778;2024-01-11T12:33:48;2.55;;;0.82;;
40907;SDS011;51055;59.436;24.778;2024-01-11T12:36:17;4.57;;;1.23;;
40907;SDS011;51055;59.436;24.778;2024-01-11T12:38:48;8.07;;;1.40;;
40907;SDS011;51055;59.436;24.778;2024-01-11T12:41:21;2.65;;;1.05;;
40907;SDS011;51055;59.436;24.778;2024-01-11T12:43:50;4.88;;;1.75;;
40907;SDS011;51055;59.436;24.778;2024-01-11T12:46:18;7.15;;;2.22;;
40907;SDS011;51055;59.436;24.778;2024-01-11T12:48:46;5.43;;;1.70;;
40907;SDS011;51055;59.436;24.778;2024-01-11T12:51:15;6.38;;;2.85;;
40907;SDS011;51055;59.436;24.778;2024-01-11T12:53:48;11.45;;;5.43;;
40907;SDS011;51055;59.436;24.778;2024-01-11T12:56:17;5.65;;;2.08;;
40907;SDS011;51055;59.436;24.778;2024-01-11T13:01:14;2.67;;;0.93;;
40907;SDS011;51055;59.436;24.778;2024-01-11T13:03:44;2.00;;;1.10;;
40907;SDS011;51055;59.436;24.778;2024-01-11T13:06:15;3.25;;;1.27;;
40907;SDS011;51055;59.436;24.778;2024-01-11T13:08:45;3.63;;;0.80;;
40907;SDS011;51055;59.436;24.778;2024-01-11T13:11:13;3.40;;;1.08;;
40907;SDS011;51055;59.436;24.778;2024-01-11T13:13:42;4.97;;;1.02;;
40907;SDS011;51055;59.436;24.778;2024-01-11T13:16:13;3.38;;;1.20;;
40907;SDS011;51055;59.436;24.778;2024-01-11T13:21:10;2.03;;;0.80;;
40907;SDS011;51055;59.436;24.778;2024-01-11T13:23:40;3.63;;;1.05;;
40907;SDS011;51055;59.436;24.778;2024-01-11T13:26:08;3.67;;;1.20;;
40907;SDS011;51055;59.436;24.778;2024-01-11T13:28:36;4.13;;;1.05;;
40907;SDS011;51055;59.436;24.778;2024-01-11T13:31:04;3.55;;;1.00;;
40907;SDS011;51055;59.436;24.778;2024-01-11T13:33:31;3.63;;;1.00;;
40907;SDS011;51055;59.436;24.778;2024-01-11T13:35:59;5.55;;;1.42;;
40907;SDS011;51055;59.436;24.778;2024-01-11T13:38:27;2.97;;;0.95;;
40907;SDS011;51055;59.436;24.778;2024-01-11T13:40:55;2.97;;;1.10;;
40907;SDS011;51055;59.436;24.778;2024-01-11T13:43:22;3.17;;;1.27;;
40907;SDS011;51055;59.436;24.778;2024-01-11T13:45:50;3.33;;;1.10;;
40907;SDS011;51055;59.436;24.778;2024-01-11T13:48:18;3.72;;;1.30;;
40907;SDS011;51055;59.436;24.778;2024-01-11T13:50:46;4.63;;;1.40;;
40907;SDS011;51055;59.436;24.778;2024-01-11T13:53:14;2.92;;;1.20;;
40907;SDS011;51055;59.436;24.778;2024-01-11T13:55:42;3.17;;;1.17;;
40907;SDS011;51055;59.436;24.778;2024-01-11T14:00:40;2.83;;;1.20;;
40907;SDS011;51055;59.436;24.778;2024-01-11T14:03:07;4.38;;;1.40;;
40907;SDS011;51055;59.436;24.778;2024-01-11T14:05:36;5.50;;;1.10;;
40907;SDS011;51055;59.436;24.778;2024-01-11T14:08:04;2.67;;;0.97;;
40907;SDS011;51055;59.436;24.778;2024-01-11T14:10:33;5.10;;;1.38;;
40907;SDS011;51055;59.436;24.778;2024-01-11T14:13:03;5.30;;;2.05;;
40907;SDS011;51055;59.436;24.778;2024-01-11T14:18:17;4.97;;;1.25;;
40907;SDS011;51055;59.436;24.778;2024-01-11T14:20:46;2.95;;;1.05;;
40907;SDS011;51055;59.436;24.778;2024-01-11T14:23:14;2.67;;;0.83;;
40907;SDS011;51055;59.436;24.778;2024-01-11T14:25:42;5.10;;;1.50;;
40907;SDS011;51055;59.436;24.778;2024-01-11T14:28:10;3.95;;;1.40;;
40907;SDS011;51055;59.436;24.778;2024-01-11T14:30:37;4.32;;;1.52;;
40907;SDS011;51055;59.436;24.778;2024-01-11T14:33:05;4.13;;;1.10;;
40907;SDS011;51055;59.436;24.778;2024-01-11T14:35:34;4.65;;;1.33;;
40907;SDS011;51055;59.436;24.778;2024-01-11T14:38:01;2.42;;;1.10;;
40907;SDS011;51055;59.436;24.778;2024-01-11T14:40:31;3.50;;;1.17;;
40907;SDS011;51055;59.436;24.778;2024-01-11T14:42:59;4.75;;;1.10;;
40907;SDS011;51055;59.436;24.778;2024-01-11T14:45:27;3.35;;;1.02;;
40907;SDS011;51055;59.436;24.778;2024-01-11T14:47:55;2.27;;;1.00;;
40907;SDS011;51055;59.436;24.778;2024-01-11T14:50:23;1.93;;;0.90;;
40907;SDS011;51055;59.436;24.778;2024-01-11T14:52:51;2.78;;;1.20;;
40907;SDS011;51055;59.436;24.778;2024-01-11T14:55:19;4.93;;;1.50;;
40907;SDS011;51055;59.436;24.778;2024-01-11T14:57:46;3.15;;;1.10;;
40907;SDS011;51055;59.436;24.778;2024-01-11T15:00:16;4.50;;;1.02;;
40907;SDS011;51055;59.436;24.778;2024-01-11T15:02:44;3.00;;;1.00;;
40907;SDS011;51055;59.436;24.778;2024-01-11T15:05:14;4.20;;;1.35;;
40907;SDS011;51055;59.436;24.778;2024-01-11T15:07:42;4.95;;;1.80;;
40907;SDS011;51055;59.436;24.778;2024-01-11T15:10:09;7.60;;;1.50;;
40907;SDS011;51055;59.436;24.778;2024-01-11T15:12:37;3.80;;;1.10;;
40907;SDS011;51055;59.436;24.778;2024-01-11T15:15:05;8.30;;;1.50;;
40907;SDS011;51055;59.436;24.778;2024-01-11T15:17:33;3.00;;;1.15;;
40907;SDS011;51055;59.436;24.778;2024-01-11T15:20:01;3.70;;;1.10;;
40907;SDS011;51055;59.436;24.778;2024-01-11T15:22:31;3.88;;;1.38;;
40907;SDS011;51055;59.436;24.778;2024-01-11T15:24:59;3.45;;;1.30;;
40907;SDS011;51055;59.436;24.778;2024-01-11T15:27:27;4.93;;;1.35;;
40907;SDS011;51055;59.436;24.778;2024-01-11T15:29:55;2.70;;;1.23;;
40907;SDS011;51055;59.436;24.778;2024-01-11T15:32:23;3.08;;;1.27;;
40907;SDS011;51055;59.436;24.778;2024-01-11T15:34:51;4.10;;;1.80;;
40907;SDS011;51055;59.436;24.778;2024-01-11T15:37:20;4.57;;;1.60;;
40907;SDS011;51055;59.436;24.778;2024-01-11T15:39:50;3.58;;;1.17;;
40907;SDS011;51055;59.436;24.778;2024-01-11T15:42:18;2.70;;;1.20;;
40907;SDS011;51055;59.436;24.778;2024-01-11T15:44:46;4.32;;;1.20;;
40907;SDS011;51055;59.436;24.778;2024-01-11T15:47:13;3.92;;;1.00;;
40907;SDS011;51055;59.436;24.778;2024-01-11T15:49:41;5.30;;;1.40;;
40907;SDS011;51055;59.436;24.778;2024-01-11T15:52:09;3.42;;;1.30;;
40907;SDS011;51055;59.436;24.778;2024-01-11T15:54:37;6.68;;;1.20;;
40907;SDS011;51055;59.436;24.778;2024-01-11T15:57:05;5.43;;;1.30;;
40907;SDS011;51055;59.436;24.778;2024-01-11T15:59:32;3.72;;;1.30;;
40907;SDS011;51055;59.436;24.778;2024-01-11T16:02:01;4.88;;;1.17;;
40907;SDS011;51055;59.436;24.778;2024-01-11T16:04:36;2.17;;;0.98;;
40907;SDS011;51055;59.436;24.778;2024-01-11T16:07:06;6.55;;;1.40;;
40907;SDS011;51055;59.436;24.778;2024-01-11T16:09:34;5.88;;;1.20;;
40907;SDS011;51055;59.436;24.778;2024-01-11T16:12:01;3.53;;;1.20;;
40907;SDS011;51055;59.436;24.778;2024-01-11T16:14:32;3.95;;;1.73;;
40907;SDS011;51055;59.436;24.778;2024-01-11T16:17:01;4.13;;;1.38;;
40907;SDS011;51055;59.436;24.778;2024-01-11T16:19:29;3.22;;;1.02;;
40907;SDS011;51055;59.436;24.778;2024-01-11T16:21:58;5.30;;;1.30;;
40907;SDS011;51055;59.436;24.778;2024-01-11T16:24:26;2.63;;;1.08;;
40907;SDS011;51055;59.436;24.778;2024-01-11T16:26:54;3.72;;;1.30;;
40907;SDS011;51055;59.436;24.778;2024-01-11T16:29:22;2.10;;;1.13;;
40907;SDS011;51055;59.436;24.778;2024-01-11T16:31:51;3.33;;;1.20;;
40907;SDS011;51055;59.436;24.778;2024-01-11T16:34:18;3.00;;;1.08;;
40907;SDS011;51055;59.436;24.778;2024-01-11T16:36:46;4.18;;;1.20;;
40907;SDS011;51055;59.436;24.778;2024-01-11T16:39:14;5.22;;;1.55;;
40907;SDS011;51055;59.436;24.778;2024-01-11T16:41:42;4.07;;;1.50;;
40907;SDS011;51055;59.436;24.778;2024-01-11T16:44:11;3.55;;;1.60;;
40907;SDS011;51055;59.436;24.778;2024-01-11T16:46:39;3.45;;;1.48;;